createdAt,value
2018-11-28T00:02:10.655Z,17.70
2018-11-28T00:07:13.135Z,17.35
2018-11-28T00:12:15.592Z,16.32
2018-11-28T00:17:18.087Z,17.30
2018-11-28T00:22:20.668Z,18.75
2018-11-28T00:27:23.164Z,17.15
2018-11-28T00:32:25.599Z,18.73
2018-11-28T00:37:28.224Z,17.77
2018-11-28T00:42:31.127Z,17.80
2018-11-28T00:47:33.582Z,17.50
2018-11-28T00:52:36.121Z,17.17
2018-11-28T00:57:38.871Z,16.82
2018-11-28T01:02:41.447Z,18.67
2018-11-28T01:07:44.705Z,18.80
2018-11-28T01:12:47.859Z,16.65
2018-11-28T01:23:00.933Z,18.02
2018-11-28T01:28:03.425Z,17.77
2018-11-28T01:33:06.206Z,17.25
2018-11-28T01:38:08.672Z,19.07
2018-11-28T01:43:11.251Z,17.90
2018-11-28T01:48:13.725Z,17.85
2018-11-28T01:53:16.236Z,17.35
2018-11-28T01:58:19.595Z,16.95
2018-11-28T02:03:22.212Z,18.20
2018-11-28T02:08:24.771Z,18.60
2018-11-28T02:13:27.322Z,18.25
2018-11-28T02:18:29.718Z,18.82
2018-11-28T02:23:32.474Z,18.77
2018-11-28T02:28:35.005Z,19.32
2018-11-28T02:33:37.541Z,17.60
2018-11-28T02:38:40.166Z,18.30
2018-11-28T02:43:42.690Z,17.40
2018-11-28T02:48:45.183Z,18.87
2018-11-28T02:53:47.802Z,18.65
2018-11-28T02:58:50.382Z,17.82
2018-11-28T03:03:52.799Z,17.92
2018-11-28T03:08:55.269Z,18.75
2018-11-28T03:13:57.805Z,19.48
2018-11-28T03:19:00.461Z,17.55
2018-11-28T03:24:02.971Z,19.57
2018-11-28T03:29:05.611Z,18.87
2018-11-28T03:34:08.114Z,19.73
2018-11-28T03:39:11.423Z,18.67
2018-11-28T03:44:13.928Z,18.57
2018-11-28T03:49:16.422Z,18.65
2018-11-28T03:54:19.867Z,18.62
2018-11-28T03:59:22.355Z,18.07
2018-11-28T04:04:24.862Z,18.90
2018-11-28T04:09:27.408Z,17.75
2018-11-28T04:14:29.927Z,19.55
2018-11-28T04:19:32.455Z,18.42
2018-11-28T04:24:35.076Z,18.85
2018-11-28T04:29:37.628Z,18.23
2018-11-28T04:34:40.169Z,18.12
2018-11-28T04:39:42.941Z,17.35
2018-11-28T04:44:45.677Z,16.75
2018-11-28T04:49:48.507Z,17.20
2018-11-28T04:54:51.957Z,18.65
2018-11-28T04:59:55.103Z,16.45
2018-11-28T05:04:57.615Z,18.30
2018-11-28T05:10:00.360Z,18.27
2018-11-28T05:15:02.946Z,17.65
2018-11-28T05:20:08.446Z,17.62
2018-11-28T05:25:14.963Z,18.55
2018-11-28T05:30:18.266Z,16.82
2018-11-28T05:35:32.574Z,17.62
2018-11-28T05:40:35.082Z,18.12
2018-11-28T05:45:37.779Z,17.30
2018-11-28T05:50:40.400Z,18.00
2018-11-28T05:55:42.960Z,18.35
2018-11-28T06:00:45.869Z,16.82
2018-11-28T06:05:48.633Z,18.35
2018-11-28T06:10:51.073Z,18.40
2018-11-28T06:15:53.840Z,17.62
2018-11-28T06:20:56.607Z,18.52
2018-11-28T06:25:59.137Z,18.23
2018-11-28T06:31:01.639Z,17.07
2018-11-28T06:36:04.153Z,19.05
2018-11-28T06:41:06.645Z,17.75
2018-11-28T06:46:09.114Z,17.42
2018-11-28T06:51:11.707Z,16.12
2018-11-28T06:56:14.301Z,18.52
2018-11-28T07:01:16.791Z,17.52
2018-11-28T07:06:19.521Z,19.62
2018-11-28T07:11:21.950Z,18.15
2018-11-28T07:16:24.501Z,18.07
2018-11-28T07:21:26.964Z,18.32
2018-11-28T07:26:29.332Z,19.52
2018-11-28T07:31:31.806Z,18.70
2018-11-28T07:36:34.216Z,19.62
2018-11-28T07:41:36.748Z,19.07
2018-11-28T07:46:39.252Z,19.60
2018-11-28T07:51:41.778Z,19.62
2018-11-28T07:56:44.185Z,20.75
2018-11-28T08:01:46.652Z,20.17
2018-11-28T08:06:49.063Z,21.17
2018-11-28T08:11:51.924Z,20.82
2018-11-28T08:16:54.488Z,19.60
2018-11-28T08:21:56.952Z,19.02
2018-11-28T08:26:59.358Z,19.07
2018-11-28T08:32:01.889Z,20.32
2018-11-28T08:37:04.230Z,21.00
2018-11-28T08:42:06.736Z,19.70
2018-11-28T08:47:09.196Z,20.15
2018-11-28T08:52:11.635Z,19.95
2018-11-28T08:57:14.055Z,21.60
2018-11-28T09:02:16.575Z,20.62
2018-11-28T09:07:19.090Z,19.12
2018-11-28T09:12:21.612Z,21.37
2018-11-28T09:17:24.328Z,20.82
2018-11-28T09:22:26.884Z,20.45
2018-11-28T09:27:29.349Z,20.68
2018-11-28T09:32:31.851Z,20.92
2018-11-28T09:37:34.392Z,21.70
2018-11-28T09:42:37.218Z,19.52
2018-11-28T09:47:39.759Z,20.85
2018-11-28T09:52:42.354Z,20.85
2018-11-28T09:57:44.784Z,19.70
2018-11-28T10:02:47.807Z,19.80
2018-11-28T10:07:50.416Z,20.35
2018-11-28T10:12:52.897Z,18.80
2018-11-28T10:17:55.283Z,20.02
2018-11-28T10:22:58.580Z,20.25
2018-11-28T10:28:04.258Z,18.45
2018-11-28T10:33:09.963Z,18.57
2018-11-28T10:38:12.715Z,17.77
2018-11-28T10:43:15.335Z,18.80
2018-11-28T10:48:18.176Z,18.48
2018-11-28T10:53:20.694Z,17.52
2018-11-28T10:58:23.143Z,18.00
2018-11-28T11:03:31.272Z,18.42
2018-11-28T11:08:39.429Z,17.98
2018-11-28T11:13:46.557Z,18.50
2018-11-28T11:18:49.007Z,19.17
2018-11-28T11:23:51.483Z,18.55
2018-11-28T11:28:53.866Z,19.57
2018-11-28T11:33:56.288Z,17.80
2018-11-28T11:38:58.741Z,16.10
2018-11-28T11:44:01.169Z,17.15
2018-11-28T11:49:03.679Z,18.25
2018-11-28T11:54:06.504Z,16.87
2018-11-28T11:59:08.959Z,17.62
2018-11-28T12:04:11.672Z,17.05
2018-11-28T12:09:14.334Z,16.30
2018-11-28T12:14:16.976Z,18.12
2018-11-28T12:19:19.401Z,16.32
2018-11-28T12:24:22.480Z,16.62
2018-11-28T12:29:24.927Z,16.87
2018-11-28T12:34:27.394Z,17.37
2018-11-28T12:39:29.867Z,16.80
2018-11-28T12:44:32.300Z,16.25
2018-11-28T12:49:34.754Z,16.37
2018-11-28T12:54:37.251Z,16.15
2018-11-28T12:59:39.730Z,15.90
2018-11-28T13:04:42.178Z,16.12
2018-11-28T13:09:45.858Z,15.78
2018-11-28T13:14:48.288Z,16.55
2018-11-28T13:19:51.148Z,16.05
2018-11-28T13:24:53.562Z,15.08
2018-11-28T13:29:56.366Z,16.27
2018-11-28T13:34:58.975Z,16.25
2018-11-28T13:40:02.077Z,16.48
2018-11-28T13:45:08.327Z,15.60
2018-11-28T13:50:10.867Z,16.23
2018-11-28T14:00:20.009Z,15.75
2018-11-28T14:05:22.813Z,16.82
2018-11-28T14:10:26.010Z,15.90
2018-11-28T14:15:28.717Z,16.05
2018-11-28T14:20:31.452Z,17.07
2018-11-28T14:25:34.064Z,16.37
2018-11-28T14:30:37.175Z,16.90
2018-11-28T14:35:39.964Z,16.97
2018-11-28T14:40:42.694Z,15.83
2018-11-28T14:45:45.200Z,16.20
2018-11-28T14:50:47.956Z,16.15
2018-11-28T14:55:50.626Z,14.87
2018-11-28T15:00:53.188Z,15.70
2018-11-28T15:06:07.031Z,16.35
2018-11-28T15:11:11.082Z,17.95
2018-11-28T15:16:13.682Z,17.07
2018-11-28T15:21:16.180Z,17.30
2018-11-28T15:26:18.847Z,16.77
2018-11-28T15:31:21.577Z,15.60
2018-11-28T15:36:24.135Z,15.50
2018-11-28T15:41:27.088Z,16.50
2018-11-28T15:46:29.770Z,23.07
2018-11-28T15:51:32.316Z,16.30
2018-11-28T15:56:35.444Z,14.70
2018-11-28T16:01:38.319Z,15.85
2018-11-28T16:06:40.825Z,15.48
2018-11-28T16:11:43.523Z,15.80
2018-11-28T16:16:46.268Z,15.20
2018-11-28T16:21:49.175Z,14.75
2018-11-28T16:26:51.746Z,15.25
2018-11-28T16:31:54.526Z,15.35
2018-11-28T16:36:57.088Z,15.70
2018-11-28T16:41:59.713Z,16.30
2018-11-28T16:47:02.494Z,16.02
2018-11-28T16:52:05.334Z,15.90
2018-11-28T16:57:08.853Z,16.37
2018-11-28T17:02:11.826Z,15.80
2018-11-28T17:07:14.585Z,15.25
2018-11-28T17:12:17.151Z,15.35
2018-11-28T17:17:19.857Z,15.83
2018-11-28T17:22:23.225Z,14.68
2018-11-28T17:27:25.956Z,15.48
2018-11-28T17:32:28.424Z,16.77
2018-11-28T17:37:30.917Z,16.35
2018-11-28T17:42:33.429Z,16.27
2018-11-28T17:47:36.143Z,16.52
2018-11-28T17:52:38.625Z,16.55
2018-11-28T17:57:41.331Z,16.17
2018-11-28T18:02:43.874Z,16.07
2018-11-28T18:07:46.317Z,16.05
2018-11-28T18:13:09.635Z,15.90
2018-11-28T18:18:13.515Z,17.12
2018-11-28T18:23:16.180Z,15.25
2018-11-28T18:28:18.842Z,15.68
2018-11-28T18:33:21.823Z,15.58
2018-11-28T18:38:24.259Z,15.83
2018-11-28T18:43:26.916Z,16.87
2018-11-28T18:48:29.412Z,15.08
2018-11-28T18:53:32.146Z,16.73
2018-11-28T18:58:34.789Z,13.72
2018-11-28T19:03:37.334Z,15.38
2018-11-28T19:08:39.896Z,15.40
2018-11-28T19:13:43.259Z,16.45
2018-11-28T19:18:45.722Z,15.23
2018-11-28T19:23:48.570Z,16.20
2018-11-28T19:28:51.453Z,17.15
2018-11-28T19:33:54.055Z,16.42
2018-11-28T19:38:56.707Z,16.62
2018-11-28T19:43:59.331Z,15.60
2018-11-28T19:49:01.976Z,16.42
2018-11-28T19:54:04.827Z,16.35
2018-11-28T19:59:07.375Z,16.27
2018-11-28T20:04:09.957Z,15.75
2018-11-28T20:09:18.124Z,16.17
2018-11-28T20:14:21.509Z,16.48
2018-11-28T20:19:24.136Z,18.67
2018-11-28T20:24:26.622Z,17.82
2018-11-28T20:29:29.316Z,18.85
2018-11-28T20:34:31.978Z,19.57
2018-11-28T20:39:34.778Z,18.85
2018-11-28T20:44:37.604Z,18.73
2018-11-28T20:49:40.245Z,17.57
2018-11-28T20:54:42.765Z,19.57
2018-11-28T20:59:45.519Z,19.48
2018-11-28T21:04:48.064Z,18.82
2018-11-28T21:09:53.669Z,20.23
2018-11-28T21:14:56.460Z,18.32
2018-11-28T21:19:59.237Z,19.07
2018-11-28T21:25:01.739Z,17.77
2018-11-28T21:30:07.730Z,18.75
2018-11-28T21:35:11.993Z,26.50
2018-11-28T21:40:14.686Z,19.73
2018-11-28T21:45:18.975Z,18.80
2018-11-28T21:50:21.407Z,18.75
2018-11-28T21:55:24.456Z,18.40
2018-11-28T22:00:27.215Z,18.98
2018-11-28T22:05:29.696Z,19.50
2018-11-28T22:10:32.599Z,20.25
2018-11-28T22:15:35.061Z,19.12
2018-11-28T22:20:38.022Z,19.70
2018-11-28T22:25:40.423Z,20.88
2018-11-28T22:30:43.825Z,18.52
2018-11-28T22:35:46.420Z,19.15
2018-11-28T22:40:49.101Z,20.70
2018-11-28T22:45:51.951Z,19.25
2018-11-28T22:50:54.397Z,19.87
2018-11-28T22:55:57.397Z,19.37
2018-11-28T23:01:05.433Z,19.15
2018-11-28T23:06:07.988Z,20.72
2018-11-28T23:11:10.514Z,21.87
2018-11-28T23:16:12.945Z,19.60
2018-11-28T23:21:15.438Z,21.70
2018-11-28T23:26:17.928Z,22.13
2018-11-28T23:31:20.346Z,22.82
2018-11-28T23:36:22.816Z,21.87
2018-11-28T23:41:25.232Z,23.07
2018-11-28T23:46:27.624Z,21.48
2018-11-28T23:51:30.094Z,23.12
2018-11-28T23:56:32.738Z,22.22
